sensor_id;sensor_type;location;lat;lon;timestamp;pressure;altitude;pressure_sealevel;temperature;humidity
1832;BME280;1680;48.106;11.708;2023-07-16T00:00:17;95220.94;;;25.15;65.33
1832;BME280;1680;48.106;11.708;2023-07-16T00:02:45;95224.41;;;25.07;65.84
1832;BME280;1680;48.106;11.708;2023-07-16T00:05:13;95218.16;;;24.77;67.63
1832;BME280;1680;48.106;11.708;2023-07-16T00:07:41;95216.75;;;24.63;68.68
1832;BME280;1680;48.106;11.708;2023-07-16T00:10:09;95223.38;;;24.74;69.25
1832;BME280;1680;48.106;11.708;2023-07-16T00:12:37;95206.03;;;24.46;70.37
1832;BME280;1680;48.106;11.708;2023-07-16T00:15:05;95224.00;;;24.62;70.72
1832;BME280;1680;48.106;11.708;2023-07-16T00:17:33;95227.94;;;24.40;72.72
1832;BME280;1680;48.106;11.708;2023-07-16T00:20:01;95232.81;;;24.29;73.60
1832;BME280;1680;48.106;11.708;2023-07-16T00:22:28;95215.63;;;24.05;74.66
1832;BME280;1680;48.106;11.708;2023-07-16T00:24:57;95230.91;;;24.13;74.95
1832;BME280;1680;48.106;11.708;2023-07-16T00:27:24;95251.41;;;24.09;76.25
1832;BME280;1680;48.106;11.708;2023-07-16T00:29:51;95261.81;;;24.10;76.25
1832;BME280;1680;48.106;11.708;2023-07-16T00:32:18;95258.34;;;24.10;76.55
1832;BME280;1680;48.106;11.708;2023-07-16T00:34:45;95265.28;;;24.02;77.17
1832;BME280;1680;48.106;11.708;2023-07-16T00:37:13;95255.47;;;23.89;77.74
1832;BME280;1680;48.106;11.708;2023-07-16T00:39:40;95260.84;;;23.89;78.59
1832;BME280;1680;48.106;11.708;2023-07-16T00:42:09;95278.66;;;23.94;78.84
1832;BME280;1680;48.106;11.708;2023-07-16T00:44:36;95232.28;;;23.46;79.72
1832;BME280;1680;48.106;11.708;2023-07-16T00:47:04;95302.38;;;23.78;79.89
1832;BME280;1680;48.106;11.708;2023-07-16T00:49:32;95306.41;;;23.67;81.37
1832;BME280;1680;48.106;11.708;2023-07-16T00:52:00;95312.31;;;23.78;80.79
1832;BME280;1680;48.106;11.708;2023-07-16T00:54:28;95270.56;;;23.47;80.33
1832;BME280;1680;48.106;11.708;2023-07-16T00:56:56;95362.78;;;23.62;81.75
1832;BME280;1680;48.106;11.708;2023-07-16T00:59:25;95342.94;;;23.63;82.17
1832;BME280;1680;48.106;11.708;2023-07-16T01:01:52;95359.47;;;23.65;82.33
1832;BME280;1680;48.106;11.708;2023-07-16T01:04:20;95382.53;;;23.45;83.93
1832;BME280;1680;48.106;11.708;2023-07-16T01:06:49;95397.69;;;23.27;85.06
1832;BME280;1680;48.106;11.708;2023-07-16T01:09:19;95403.34;;;23.26;85.93
1832;BME280;1680;48.106;11.708;2023-07-16T01:11:48;95408.81;;;23.21;86.78
1832;BME280;1680;48.106;11.708;2023-07-16T01:14:17;95398.34;;;23.11;86.62
1832;BME280;1680;48.106;11.708;2023-07-16T01:16:45;95422.84;;;23.26;86.23
1832;BME280;1680;48.106;11.708;2023-07-16T01:19:13;95431.56;;;23.32;86.12
1832;BME280;1680;48.106;11.708;2023-07-16T01:21:47;95450.50;;;23.35;86.22
1832;BME280;1680;48.106;11.708;2023-07-16T01:24:39;95454.38;;;23.29;86.88
1832;BME280;1680;48.106;11.708;2023-07-16T01:27:25;95439.72;;;23.27;87.33
1832;BME280;1680;48.106;11.708;2023-07-16T01:30:00;95445.22;;;23.08;89.05
1832;BME280;1680;48.106;11.708;2023-07-16T01:32:30;95452.22;;;23.18;89.19
1832;BME280;1680;48.106;11.708;2023-07-16T01:34:58;95463.13;;;23.21;89.24
1832;BME280;1680;48.106;11.708;2023-07-16T01:37:26;95466.22;;;23.15;89.79
1832;BME280;1680;48.106;11.708;2023-07-16T01:39:54;95470.28;;;23.12;90.62
1832;BME280;1680;48.106;11.708;2023-07-16T01:42:21;95471.25;;;23.03;90.71
1832;BME280;1680;48.106;11.708;2023-07-16T01:44:49;95452.75;;;22.93;90.80
1832;BME280;1680;48.106;11.708;2023-07-16T01:47:23;95484.34;;;23.18;90.10
1832;BME280;1680;48.106;11.708;2023-07-16T01:49:51;95489.19;;;23.16;90.69
1832;BME280;1680;48.106;11.708;2023-07-16T01:52:18;95489.63;;;22.96;92.67
1832;BME280;1680;48.106;11.708;2023-07-16T01:54:45;95496.16;;;23.03;92.64
1832;BME280;1680;48.106;11.708;2023-07-16T01:57:13;95493.88;;;22.97;92.54
1832;BME280;1680;48.106;11.708;2023-07-16T01:59:40;95491.31;;;22.92;93.04
1832;BME280;1680;48.106;11.708;2023-07-16T02:02:07;95504.19;;;22.90;93.90
1832;BME280;1680;48.106;11.708;2023-07-16T02:04:36;95498.16;;;22.98;93.28
1832;BME280;1680;48.106;11.708;2023-07-16T02:07:04;95495.25;;;22.94;94.37
1832;BME280;1680;48.106;11.708;2023-07-16T02:09:33;95501.19;;;23.05;93.89
1832;BME280;1680;48.106;11.708;2023-07-16T02:12:01;95498.66;;;23.00;94.12
1832;BME280;1680;48.106;11.708;2023-07-16T02:14:28;95496.75;;;23.14;93.12
1832;BME280;1680;48.106;11.708;2023-07-16T02:16:55;95502.88;;;23.28;92.27
1832;BME280;1680;48.106;11.708;2023-07-16T02:19:23;95509.81;;;23.02;94.78
1832;BME280;1680;48.106;11.708;2023-07-16T02:21:52;95514.00;;;23.08;95.09
1832;BME280;1680;48.106;11.708;2023-07-16T02:24:20;95512.69;;;23.05;95.14
1832;BME280;1680;48.106;11.708;2023-07-16T02:26:47;95515.88;;;22.94;95.83
1832;BME280;1680;48.106;11.708;2023-07-16T02:29:14;95505.19;;;22.94;96.51
1832;BME280;1680;48.106;11.708;2023-07-16T02:31:41;95513.50;;;23.06;95.52
1832;BME280;1680;48.106;11.708;2023-07-16T02:34:11;95516.06;;;22.97;95.88
1832;BME280;1680;48.106;11.708;2023-07-16T02:36:38;95515.97;;;23.02;95.78
1832;BME280;1680;48.106;11.708;2023-07-16T02:39:07;95521.00;;;23.04;96.15
1832;BME280;1680;48.106;11.708;2023-07-16T02:41:34;95518.63;;;23.16;95.03
1832;BME280;1680;48.106;11.708;2023-07-16T02:44:04;95506.75;;;23.08;94.90
1832;BME280;1680;48.106;11.708;2023-07-16T02:46:32;95509.34;;;23.13;94.02
1832;BME280;1680;48.106;11.708;2023-07-16T02:49:00;95533.91;;;23.15;94.59
1832;BME280;1680;48.106;11.708;2023-07-16T02:51:27;95535.19;;;23.18;94.96
1832;BME280;1680;48.106;11.708;2023-07-16T02:53:54;95542.84;;;23.11;95.23
1832;BME280;1680;48.106;11.708;2023-07-16T02:56:23;95551.56;;;23.16;94.75
1832;BME280;1680;48.106;11.708;2023-07-16T02:58:50;95554.41;;;23.20;94.41
1832;BME280;1680;48.106;11.708;2023-07-16T03:01:17;95554.13;;;23.21;93.74
1832;BME280;1680;48.106;11.708;2023-07-16T03:03:45;95548.97;;;23.25;94.00
1832;BME280;1680;48.106;11.708;2023-07-16T03:06:12;95545.38;;;23.29;94.26
1832;BME280;1680;48.106;11.708;2023-07-16T03:08:39;95544.88;;;23.41;93.57
1832;BME280;1680;48.106;11.708;2023-07-16T03:11:07;95551.31;;;23.40;93.11
1832;BME280;1680;48.106;11.708;2023-07-16T03:13:36;95557.75;;;23.39;93.23
1832;BME280;1680;48.106;11.708;2023-07-16T03:16:04;95569.16;;;23.31;93.85
1832;BME280;1680;48.106;11.708;2023-07-16T03:18:32;95562.13;;;23.35;93.73
1832;BME280;1680;48.106;11.708;2023-07-16T03:21:00;95561.41;;;23.43;92.65
1832;BME280;1680;48.106;11.708;2023-07-16T03:23:27;95556.25;;;23.46;92.92
1832;BME280;1680;48.106;11.708;2023-07-16T03:25:54;95544.97;;;23.36;92.76
1832;BME280;1680;48.106;11.708;2023-07-16T03:28:21;95548.63;;;23.40;92.52
1832;BME280;1680;48.106;11.708;2023-07-16T03:30:50;95546.56;;;23.37;92.54
1832;BME280;1680;48.106;11.708;2023-07-16T03:33:19;95549.81;;;23.34;92.60
1832;BME280;1680;48.106;11.708;2023-07-16T03:35:48;95556.75;;;23.35;91.78
1832;BME280;1680;48.106;11.708;2023-07-16T03:38:15;95561.63;;;23.33;92.12
1832;BME280;1680;48.106;11.708;2023-07-16T03:40:46;95561.63;;;23.33;92.66
1832;BME280;1680;48.106;11.708;2023-07-16T03:43:14;95569.28;;;23.26;93.07
1832;BME280;1680;48.106;11.708;2023-07-16T03:45:42;95581.00;;;23.30;92.42
1832;BME280;1680;48.106;11.708;2023-07-16T03:48:11;95577.78;;;23.41;90.58
1832;BME280;1680;48.106;11.708;2023-07-16T03:50:38;95584.44;;;23.44;90.63
1832;BME280;1680;48.106;11.708;2023-07-16T03:53:06;95592.75;;;23.42;91.55
1832;BME280;1680;48.106;11.708;2023-07-16T03:55:33;95588.78;;;23.40;92.74
1832;BME280;1680;48.106;11.708;2023-07-16T03:58:01;95594.97;;;23.27;94.03
1832;BME280;1680;48.106;11.708;2023-07-16T04:00:28;95600.13;;;23.10;95.18
1832;BME280;1680;48.106;11.708;2023-07-16T04:02:55;95595.56;;;22.97;95.91
1832;BME280;1680;48.106;11.708;2023-07-16T04:05:24;95594.25;;;22.81;99.51
1832;BME280;1680;48.106;11.708;2023-07-16T04:07:51;95604.66;;;22.69;99.69
1832;BME280;1680;48.106;11.708;2023-07-16T04:10:18;95604.31;;;22.57;100.00
1832;BME280;1680;48.106;11.708;2023-07-16T04:12:46;95615.25;;;22.60;100.00
1832;BME280;1680;48.106;11.708;2023-07-16T04:15:13;95621.06;;;22.49;100.00
1832;BME280;1680;48.106;11.708;2023-07-16T04:17:40;95612.72;;;22.51;100.00
1832;BME280;1680;48.106;11.708;2023-07-16T04:20:08;95612.34;;;22.57;100.00
1832;BME280;1680;48.106;11.708;2023-07-16T04:22:37;95608.97;;;22.52;100.00
1832;BME280;1680;48.106;11.708;2023-07-16T04:25:04;95617.28;;;22.50;100.00
1832;BME280;1680;48.106;11.708;2023-07-16T04:27:32;95618.69;;;22.61;93.30
1832;BME280;1680;48.106;11.708;2023-07-16T04:29:59;95633.28;;;22.37;98.93
1832;BME280;1680;48.106;11.708;2023-07-16T04:32:26;95648.66;;;22.26;100.00
1832;BME280;1680;48.106;11.708;2023-07-16T04:34:53;95658.56;;;22.26;100.00
1832;BME280;1680;48.106;11.708;2023-07-16T04:37:20;95653.00;;;22.22;100.00
1832;BME280;1680;48.106;11.708;2023-07-16T04:39:50;95650.84;;;22.24;100.00
1832;BME280;1680;48.106;11.708;2023-07-16T04:42:17;95665.00;;;22.25;100.00
1832;BME280;1680;48.106;11.708;2023-07-16T04:44:46;95665.28;;;22.23;100.00
1832;BME280;1680;48.106;11.708;2023-07-16T04:47:13;95673.69;;;21.98;100.00
1832;BME280;1680;48.106;11.708;2023-07-16T04:49:40;95677.38;;;21.84;100.00
1832;BME280;1680;48.106;11.708;2023-07-16T04:52:07;95672.16;;;21.74;100.00
1832;BME280;1680;48.106;11.708;2023-07-16T04:54:35;95660.47;;;21.70;100.00
1832;BME280;1680;48.106;11.708;2023-07-16T04:57:06;95672.31;;;21.64;100.00
1832;BME280;1680;48.106;11.708;2023-07-16T04:59:34;95662.44;;;21.41;100.00
1832;BME280;1680;48.106;11.708;2023-07-16T05:02:04;95681.19;;;21.59;100.00
1832;BME280;1680;48.106;11.708;2023-07-16T05:04:32;95686.53;;;21.54;100.00
1832;BME280;1680;48.106;11.708;2023-07-16T05:07:00;95692.94;;;21.58;100.00
1832;BME280;1680;48.106;11.708;2023-07-16T05:09:27;95693.47;;;21.55;100.00
1832;BME280;1680;48.106;11.708;2023-07-16T05:11:55;95692.19;;;21.53;100.00
1832;BME280;1680;48.106;11.708;2023-07-16T05:14:27;95691.00;;;21.41;100.00
1832;BME280;1680;48.106;11.708;2023-07-16T05:16:55;95673.69;;;21.56;100.00
1832;BME280;1680;48.106;11.708;2023-07-16T05:19:22;95657.53;;;21.48;100.00
1832;BME280;1680;48.106;11.708;2023-07-16T05:21:49;95651.75;;;21.64;100.00
1832;BME280;1680;48.106;11.708;2023-07-16T05:24:17;95660.84;;;21.63;100.00
1832;BME280;1680;48.106;11.708;2023-07-16T05:26:44;95666.03;;;21.73;100.00
1832;BME280;1680;48.106;11.708;2023-07-16T05:29:11;95665.53;;;21.71;100.00
1832;BME280;1680;48.106;11.708;2023-07-16T05:31:40;95672.19;;;21.92;100.00
1832;BME280;1680;48.106;11.708;2023-07-16T05:34:07;95673.25;;;21.91;100.00
1832;BME280;1680;48.106;11.708;2023-07-16T05:36:34;95679.81;;;21.99;100.00
1832;BME280;1680;48.106;11.708;2023-07-16T05:39:02;95687.38;;;22.10;100.00
1832;BME280;1680;48.106;11.708;2023-07-16T05:41:29;95677.81;;;22.09;100.00
1832;BME280;1680;48.106;11.708;2023-07-16T05:43:56;95665.44;;;22.13;100.00
1832;BME280;1680;48.106;11.708;2023-07-16T05:46:23;95675.75;;;22.20;100.00
1832;BME280;1680;48.106;11.708;2023-07-16T05:48:52;95679.97;;;22.07;100.00
1832;BME280;1680;48.106;11.708;2023-07-16T05:51:19;95690.94;;;22.06;100.00
1832;BME280;1680;48.106;11.708;2023-07-16T05:53:47;95692.72;;;22.10;100.00
1832;BME280;1680;48.106;11.708;2023-07-16T05:56:14;95690.72;;;22.02;100.00
1832;BME280;1680;48.106;11.708;2023-07-16T05:58:41;95702.19;;;22.03;100.00
1832;BME280;1680;48.106;11.708;2023-07-16T06:01:08;95709.47;;;21.97;100.00
1832;BME280;1680;48.106;11.708;2023-07-16T06:03:36;95704.22;;;22.11;100.00
1832;BME280;1680;48.106;11.708;2023-07-16T06:06:04;95701.97;;;21.99;100.00
1832;BME280;1680;48.106;11.708;2023-07-16T06:08:31;95697.66;;;22.03;100.00
1832;BME280;1680;48.106;11.708;2023-07-16T06:10:59;95700.69;;;22.15;100.00
1832;BME280;1680;48.106;11.708;2023-07-16T06:13:26;95690.22;;;22.37;100.00
1832;BME280;1680;48.106;11.708;2023-07-16T06:15:53;95713.78;;;22.67;100.00
1832;BME280;1680;48.106;11.708;2023-07-16T06:18:20;95714.13;;;22.79;100.00
1832;BME280;1680;48.106;11.708;2023-07-16T06:20:47;95713.03;;;22.80;100.00
1832;BME280;1680;48.106;11.708;2023-07-16T06:23:18;95707.38;;;22.81;100.00
1832;BME280;1680;48.106;11.708;2023-07-16T06:25:45;95717.63;;;22.93;100.00
1832;BME280;1680;48.106;11.708;2023-07-16T06:28:13;95723.66;;;22.98;100.00
1832;BME280;1680;48.106;11.708;2023-07-16T06:30:41;95726.75;;;23.05;100.00
1832;BME280;1680;48.106;11.708;2023-07-16T06:33:08;95733.72;;;23.06;100.00
1832;BME280;1680;48.106;11.708;2023-07-16T06:35:36;95734.53;;;23.20;100.00
1832;BME280;1680;48.106;11.708;2023-07-16T06:38:03;95734.38;;;23.44;100.00
1832;BME280;1680;48.106;11.708;2023-07-16T06:40:32;95733.56;;;23.56;100.00
1832;BME280;1680;48.106;11.708;2023-07-16T06:42:59;95734.94;;;23.67;100.00
1832;BME280;1680;48.106;11.708;2023-07-16T06:45:26;95740.13;;;23.77;100.00
1832;BME280;1680;48.106;11.708;2023-07-16T06:47:53;95738.72;;;23.66;100.00
1832;BME280;1680;48.106;11.708;2023-07-16T06:50:20;95733.56;;;23.56;100.00
1832;BME280;1680;48.106;11.708;2023-07-16T06:52:47;95730.47;;;23.50;100.00
1832;BME280;1680;48.106;11.708;2023-07-16T06:55:14;95717.69;;;23.33;100.00
1832;BME280;1680;48.106;11.708;2023-07-16T06:57:43;95739.00;;;23.52;100.00
1832;BME280;1680;48.106;11.708;2023-07-16T07:00:11;95719.06;;;23.44;100.00
1832;BME280;1680;48.106;11.708;2023-07-16T07:02:38;95741.00;;;23.86;100.00
1832;BME280;1680;48.106;11.708;2023-07-16T07:05:07;95738.66;;;24.20;100.00
1832;BME280;1680;48.106;11.708;2023-07-16T07:07:34;95738.94;;;24.32;100.00
1832;BME280;1680;48.106;11.708;2023-07-16T07:10:01;95721.75;;;24.33;100.00
1832;BME280;1680;48.106;11.708;2023-07-16T07:12:28;95719.41;;;24.18;100.00
1832;BME280;1680;48.106;11.708;2023-07-16T07:15:01;95753.50;;;24.40;100.00
1832;BME280;1680;48.106;11.708;2023-07-16T07:17:29;95747.75;;;24.46;100.00
1832;BME280;1680;48.106;11.708;2023-07-16T07:19:56;95742.53;;;24.63;100.00
1832;BME280;1680;48.106;11.708;2023-07-16T07:22:23;95751.38;;;24.50;100.00
1832;BME280;1680;48.106;11.708;2023-07-16T07:24:50;95743.56;;;24.40;100.00
1832;BME280;1680;48.106;11.708;2023-07-16T07:27:17;95743.38;;;24.37;100.00
1832;BME280;1680;48.106;11.708;2023-07-16T07:29:44;95742.78;;;24.40;100.00
1832;BME280;1680;48.106;11.708;2023-07-16T07:32:18;95745.63;;;24.43;100.00
1832;BME280;1680;48.106;11.708;2023-07-16T07:34:46;95741.78;;;24.49;100.00
1832;BME280;1680;48.106;11.708;2023-07-16T07:37:13;95747.16;;;24.49;100.00
1832;BME280;1680;48.106;11.708;2023-07-16T07:39:40;95709.16;;;24.20;100.00
1832;BME280;1680;48.106;11.708;2023-07-16T07:42:07;95745.16;;;24.41;100.00
1832;BME280;1680;48.106;11.708;2023-07-16T07:44:35;95747.34;;;24.39;100.00
1832;BME280;1680;48.106;11.708;2023-07-16T07:47:03;95731.66;;;24.46;98.44
1832;BME280;1680;48.106;11.708;2023-07-16T07:49:31;95735.50;;;24.40;100.00
1832;BME280;1680;48.106;11.708;2023-07-16T07:51:59;95734.66;;;24.31;100.00
1832;BME280;1680;48.106;11.708;2023-07-16T07:54:27;95735.34;;;24.01;100.00
1832;BME280;1680;48.106;11.708;2023-07-16T07:56:54;95726.81;;;23.99;100.00
1832;BME280;1680;48.106;11.708;2023-07-16T07:59:21;95735.09;;;24.11;100.00
1832;BME280;1680;48.106;11.708;2023-07-16T08:01:48;95733.28;;;24.20;100.00
1832;BME280;1680;48.106;11.708;2023-07-16T08:04:15;95732.09;;;24.26;100.00
1832;BME280;1680;48.106;11.708;2023-07-16T08:06:44;95732.31;;;24.16;100.00
1832;BME280;1680;48.106;11.708;2023-07-16T08:09:11;95733.09;;;24.17;99.59
1832;BME280;1680;48.106;11.708;2023-07-16T08:11:38;95731.75;;;24.06;100.00
1832;BME280;1680;48.106;11.708;2023-07-16T08:14:05;95727.16;;;24.06;98.75
1832;BME280;1680;48.106;11.708;2023-07-16T08:16:32;95736.28;;;24.19;100.00
1832;BME280;1680;48.106;11.708;2023-07-16T08:18:59;95724.56;;;24.15;98.44
1832;BME280;1680;48.106;11.708;2023-07-16T08:21:27;95727.88;;;24.34;97.30
1832;BME280;1680;48.106;11.708;2023-07-16T08:23:55;95722.38;;;24.52;94.84
1832;BME280;1680;48.106;11.708;2023-07-16T08:26:22;95721.41;;;24.70;94.67
1832;BME280;1680;48.106;11.708;2023-07-16T08:28:49;95706.63;;;24.81;89.89
1832;BME280;1680;48.106;11.708;2023-07-16T08:31:18;95703.34;;;24.84;89.28
1832;BME280;1680;48.106;11.708;2023-07-16T08:33:46;95716.25;;;25.04;91.27
1832;BME280;1680;48.106;11.708;2023-07-16T08:36:13;95706.78;;;25.28;89.85
1832;BME280;1680;48.106;11.708;2023-07-16T08:38:41;95701.56;;;25.32;88.09
1832;BME280;1680;48.106;11.708;2023-07-16T08:41:09;95697.16;;;25.36;83.96
1832;BME280;1680;48.106;11.708;2023-07-16T08:43:37;95713.00;;;25.46;87.26
1832;BME280;1680;48.106;11.708;2023-07-16T08:46:05;95709.38;;;25.50;84.62
1832;BME280;1680;48.106;11.708;2023-07-16T08:48:33;95712.31;;;25.32;77.62
1832;BME280;1680;48.106;11.708;2023-07-16T08:51:02;95667.31;;;24.76;75.27
1832;BME280;1680;48.106;11.708;2023-07-16T08:53:30;95707.06;;;24.96;74.27
1832;BME280;1680;48.106;11.708;2023-07-16T08:55:57;95704.28;;;25.10;76.64
1832;BME280;1680;48.106;11.708;2023-07-16T08:58:26;95701.56;;;25.32;76.60
1832;BME280;1680;48.106;11.708;2023-07-16T09:00:53;95708.59;;;25.50;79.95
1832;BME280;1680;48.106;11.708;2023-07-16T09:03:21;95715.19;;;25.44;78.46
1832;BME280;1680;48.106;11.708;2023-07-16T09:05:48;95715.59;;;25.59;77.24
1832;BME280;1680;48.106;11.708;2023-07-16T09:08:16;95726.34;;;25.67;74.38
1832;BME280;1680;48.106;11.708;2023-07-16T09:10:43;95713.69;;;25.59;71.02
1832;BME280;1680;48.106;11.708;2023-07-16T09:13:10;95713.25;;;25.74;70.54
1832;BME280;1680;48.106;11.708;2023-07-16T09:15:39;95716.81;;;25.92;72.55
1832;BME280;1680;48.106;11.708;2023-07-16T09:18:10;95710.81;;;26.12;73.19
1832;BME280;1680;48.106;11.708;2023-07-16T09:20:39;95704.69;;;26.45;74.62
1832;BME280;1680;48.106;11.708;2023-07-16T09:23:08;95688.22;;;26.72;77.85
1832;BME280;1680;48.106;11.708;2023-07-16T09:25:35;95689.09;;;26.93;73.55
1832;BME280;1680;48.106;11.708;2023-07-16T09:28:05;95686.41;;;26.93;68.22
1832;BME280;1680;48.106;11.708;2023-07-16T09:30:33;95695.59;;;26.92;71.11
1832;BME280;1680;48.106;11.708;2023-07-16T09:33:10;95686.72;;;27.00;70.43
1832;BME280;1680;48.106;11.708;2023-07-16T09:35:38;95685.00;;;27.04;68.11
1832;BME280;1680;48.106;11.708;2023-07-16T09:38:07;95685.94;;;26.91;69.27
1832;BME280;1680;48.106;11.708;2023-07-16T09:40:35;95638.78;;;26.76;69.55
1832;BME280;1680;48.106;11.708;2023-07-16T09:43:03;95682.75;;;27.06;67.95
1832;BME280;1680;48.106;11.708;2023-07-16T09:45:30;95670.47;;;27.34;66.99
1832;BME280;1680;48.106;11.708;2023-07-16T09:47:58;95675.56;;;27.27;67.45
1832;BME280;1680;48.106;11.708;2023-07-16T09:50:29;95671.94;;;27.23;67.27
1832;BME280;1680;48.106;11.708;2023-07-16T09:52:57;95663.66;;;27.28;71.53
1832;BME280;1680;48.106;11.708;2023-07-16T09:55:25;95665.56;;;27.64;66.55
1832;BME280;1680;48.106;11.708;2023-07-16T09:57:55;95661.28;;;27.63;68.58
1832;BME280;1680;48.106;11.708;2023-07-16T10:00:24;95661.94;;;27.60;69.33
1832;BME280;1680;48.106;11.708;2023-07-16T10:02:52;95657.28;;;27.41;65.18
1832;BME280;1680;48.106;11.708;2023-07-16T10:05:24;95646.69;;;27.64;66.91
1832;BME280;1680;48.106;11.708;2023-07-16T10:07:54;95652.09;;;27.64;65.37
1832;BME280;1680;48.106;11.708;2023-07-16T10:10:26;95646.34;;;27.74;66.34
1832;BME280;1680;48.106;11.708;2023-07-16T10:13:01;95654.88;;;27.48;63.78
1832;BME280;1680;48.106;11.708;2023-07-16T10:15:29;95642.25;;;27.31;65.94
1832;BME280;1680;48.106;11.708;2023-07-16T10:17:56;95650.78;;;27.42;68.73
1832;BME280;1680;48.106;11.708;2023-07-16T10:20:31;95654.16;;;27.59;67.58
1832;BME280;1680;48.106;11.708;2023-07-16T10:23:10;95647.06;;;27.55;68.31
1832;BME280;1680;48.106;11.708;2023-07-16T10:25:38;95656.06;;;27.67;64.22
1832;BME280;1680;48.106;11.708;2023-07-16T10:28:06;95609.25;;;27.71;65.50
1832;BME280;1680;48.106;11.708;2023-07-16T10:30:33;95655.97;;;28.45;64.80
1832;BME280;1680;48.106;11.708;2023-07-16T10:33:03;95642.84;;;28.56;62.25
1832;BME280;1680;48.106;11.708;2023-07-16T10:35:34;95654.31;;;28.85;64.22
1832;BME280;1680;48.106;11.708;2023-07-16T10:38:04;95625.44;;;28.97;60.42
1832;BME280;1680;48.106;11.708;2023-07-16T10:40:31;95632.53;;;29.02;61.93
1832;BME280;1680;48.106;11.708;2023-07-16T10:42:58;95649.09;;;29.12;58.80
1832;BME280;1680;48.106;11.708;2023-07-16T10:45:25;95647.19;;;29.13;58.78
1832;BME280;1680;48.106;11.708;2023-07-16T10:47:53;95636.16;;;29.18;61.69
1832;BME280;1680;48.106;11.708;2023-07-16T10:50:21;95638.19;;;29.09;61.45
1832;BME280;1680;48.106;11.708;2023-07-16T10:52:51;95597.50;;;28.49;59.28
1832;BME280;1680;48.106;11.708;2023-07-16T10:55:20;95611.88;;;28.21;60.61
1832;BME280;1680;48.106;11.708;2023-07-16T10:57:48;95616.22;;;28.34;62.12
1832;BME280;1680;48.106;11.708;2023-07-16T11:00:16;95627.47;;;28.88;63.91
1832;BME280;1680;48.106;11.708;2023-07-16T11:02:44;95619.94;;;28.94;58.11
1832;BME280;1680;48.106;11.708;2023-07-16T11:05:11;95580.09;;;28.47;58.93
1832;BME280;1680;48.106;11.708;2023-07-16T11:07:42;95633.63;;;28.89;56.63
1832;BME280;1680;48.106;11.708;2023-07-16T11:10:10;95591.75;;;28.51;58.03
1832;BME280;1680;48.106;11.708;2023-07-16T11:12:39;95632.75;;;28.97;57.02
1832;BME280;1680;48.106;11.708;2023-07-16T11:15:07;95628.03;;;29.06;56.41
1832;BME280;1680;48.106;11.708;2023-07-16T11:17:37;95611.63;;;29.23;56.99
1832;BME280;1680;48.106;11.708;2023-07-16T11:20:08;95640.94;;;29.68;54.29
1832;BME280;1680;48.106;11.708;2023-07-16T11:22:37;95630.91;;;29.81;54.11
1832;BME280;1680;48.106;11.708;2023-07-16T11:25:11;95602.28;;;29.56;53.87
1832;BME280;1680;48.106;11.708;2023-07-16T11:27:42;95625.81;;;29.79;54.67
1832;BME280;1680;48.106;11.708;2023-07-16T11:30:09;95624.47;;;29.38;54.12
1832;BME280;1680;48.106;11.708;2023-07-16T11:32:41;95601.59;;;29.11;55.05
1832;BME280;1680;48.106;11.708;2023-07-16T11:35:12;95604.84;;;29.05;55.35
1832;BME280;1680;48.106;11.708;2023-07-16T11:37:42;95600.81;;;28.99;56.25
1832;BME280;1680;48.106;11.708;2023-07-16T11:40:11;95560.31;;;28.66;55.52
1832;BME280;1680;48.106;11.708;2023-07-16T11:42:43;95580.88;;;28.59;55.68
1832;BME280;1680;48.106;11.708;2023-07-16T11:45:16;95586.09;;;28.64;55.77
1832;BME280;1680;48.106;11.708;2023-07-16T11:47:43;95604.75;;;29.13;55.26
1832;BME280;1680;48.106;11.708;2023-07-16T11:50:11;95579.88;;;29.20;54.11
1832;BME280;1680;48.106;11.708;2023-07-16T11:52:39;95616.16;;;29.43;53.74
1832;BME280;1680;48.106;11.708;2023-07-16T11:55:07;95576.59;;;29.62;53.35
1832;BME280;1680;48.106;11.708;2023-07-16T11:57:35;95594.66;;;30.37;52.72
1832;BME280;1680;48.106;11.708;2023-07-16T12:00:05;95550.81;;;30.59;51.32
1832;BME280;1680;48.106;11.708;2023-07-16T12:02:32;95587.53;;;31.02;49.55
1832;BME280;1680;48.106;11.708;2023-07-16T12:04:59;95562.03;;;30.88;50.00
1832;BME280;1680;48.106;11.708;2023-07-16T12:07:33;95586.81;;;30.59;49.38
1832;BME280;1680;48.106;11.708;2023-07-16T12:10:01;95585.69;;;29.81;50.76
1832;BME280;1680;48.106;11.708;2023-07-16T12:12:29;95539.44;;;29.35;52.84
1832;BME280;1680;48.106;11.708;2023-07-16T12:14:56;95583.91;;;29.73;52.31
1832;BME280;1680;48.106;11.708;2023-07-16T12:17:25;95586.94;;;29.72;50.93
1832;BME280;1680;48.106;11.708;2023-07-16T12:19:52;95589.88;;;29.67;52.57
1832;BME280;1680;48.106;11.708;2023-07-16T12:22:19;95586.16;;;29.71;54.09
1832;BME280;1680;48.106;11.708;2023-07-16T12:24:47;95576.03;;;29.68;55.03
1832;BME280;1680;48.106;11.708;2023-07-16T12:27:15;95545.19;;;29.58;54.14
1832;BME280;1680;48.106;11.708;2023-07-16T12:29:42;95582.31;;;29.84;51.72
1832;BME280;1680;48.106;11.708;2023-07-16T12:32:10;95568.53;;;30.01;52.05
1832;BME280;1680;48.106;11.708;2023-07-16T12:34:38;95533.84;;;30.19;53.00
1832;BME280;1680;48.106;11.708;2023-07-16T12:37:06;95571.69;;;30.58;49.61
1832;BME280;1680;48.106;11.708;2023-07-16T12:39:33;95573.63;;;30.73;49.84
1832;BME280;1680;48.106;11.708;2023-07-16T12:42:00;95560.16;;;30.34;49.97
1832;BME280;1680;48.106;11.708;2023-07-16T12:44:28;95548.97;;;30.35;49.56
1832;BME280;1680;48.106;11.708;2023-07-16T12:46:55;95540.97;;;30.11;49.30
1832;BME280;1680;48.106;11.708;2023-07-16T12:49:22;95572.47;;;30.31;50.14
1832;BME280;1680;48.106;11.708;2023-07-16T12:51:51;95578.19;;;30.14;50.66
1832;BME280;1680;48.106;11.708;2023-07-16T12:54:18;95557.16;;;30.23;51.05
1832;BME280;1680;48.106;11.708;2023-07-16T12:56:45;95568.66;;;30.32;51.64
1832;BME280;1680;48.106;11.708;2023-07-16T12:59:13;95567.66;;;30.52;49.44
1832;BME280;1680;48.106;11.708;2023-07-16T13:01:40;95562.22;;;30.52;50.86
1832;BME280;1680;48.106;11.708;2023-07-16T13:04:07;95565.09;;;30.16;50.14
1832;BME280;1680;48.106;11.708;2023-07-16T13:06:34;95565.97;;;30.20;51.23
1832;BME280;1680;48.106;11.708;2023-07-16T13:09:02;95572.50;;;30.19;51.41
1832;BME280;1680;48.106;11.708;2023-07-16T13:11:30;95559.91;;;29.72;51.50